Time;durP1;ratioP1;P1;durP2;ratioP2;P2;SDS_P1;SDS_P2;PMS_P1;PMS_P2;Temp;Humidity;BMP_temperature;BMP_pressure;BME280_temperature;BME280_humidity;BME280_pressure;Samples;Min_cycle;Max_cycle;Signal;HPM_P1;HPM_P2
2024/02/05 00:00:30;;;;;;;;;;;;;;;11.31;45.26;99700.25;5013184;28;20314;-86
2024/02/05 00:02:56;;;;;;;;;;;;;;;11.34;45.79;99707.00;5011742;28;19917;-86
2024/02/05 00:05:21;;;;;;;;;;;;;;;11.36;45.45;99694.44;5013664;28;19918;-86
2024/02/05 00:07:47;;;;;;;;;;;;;;;11.38;45.33;99695.88;5012065;28;20000;-86
2024/02/05 00:10:12;;;;;;;;;;;;;;;11.38;45.29;99690.59;5011454;28;19927;-86
2024/02/05 00:12:37;;;;;;;;;;;;;;;11.34;45.25;99688.50;5012736;28;19914;-86
2024/02/05 00:15:04;;;;;;;;;;;;;;;11.38;45.76;99703.00;5011544;28;19993;-86
2024/02/05 00:17:29;;;;;;;;;;;;;;;11.39;45.90;99691.44;5013038;28;19914;-86
2024/02/05 00:19:55;;;;;;;;;;;;;;;11.35;45.28;99688.31;5011459;28;19979;-86
2024/02/05 00:22:20;;;;;;;;;;;;;;;11.33;45.24;99687.69;5011370;28;20004;-86
2024/02/05 00:24:45;;;;;;;;;;;;;;;11.33;45.74;99690.31;5012508;28;19925;-86
2024/02/05 00:27:12;;;;;;;;;;;;;;;11.30;45.53;99689.84;5012571;28;20452;-86
2024/02/05 00:29:37;;;;;;;;;;;;;;;11.25;45.65;99694.84;5012571;28;19920;-86
2024/02/05 00:32:02;;;;;;;;;;;;;;;11.26;45.60;99692.03;5012286;28;19913;-86
2024/02/05 00:34:28;;;;;;;;;;;;;;;11.27;45.40;99691.03;5012083;28;19913;-86
2024/02/05 00:36:53;;;;;;;;;;;;;;;11.24;45.15;99691.41;5011037;28;19921;-86
2024/02/05 00:39:18;;;;;;;;;;;;;;;11.23;45.78;99684.47;5012386;28;20314;-86
2024/02/05 00:41:44;;;;;;;;;;;;;;;11.23;45.62;99683.66;5011167;28;19913;-86
2024/02/05 00:44:09;;;;;;;;;;;;;;;11.21;45.54;99675.91;5012697;28;19917;-86
2024/02/05 00:46:34;;;;;;;;;;;;;;;11.18;45.54;99672.78;5012677;28;19921;-86
2024/02/05 00:49:00;;;;;;;;;;;;;;;11.20;44.51;99668.16;5012952;28;19976;-86
2024/02/05 00:51:26;;;;;;;;;;;;;;;11.23;45.22;99667.78;5011198;28;19988;-86
2024/02/05 00:53:51;;;;;;;;;;;;;;;11.23;45.49;99668.59;5012719;28;20406;-86
2024/02/05 00:56:17;;;;;;;;;;;;;;;11.25;45.35;99677.19;5010917;28;20377;-86
2024/02/05 00:58:42;;;;;;;;;;;;;;;11.28;45.62;99674.19;5012108;28;20361;-86
2024/02/05 01:01:08;;;;;;;;;;;;;;;11.30;45.31;99681.94;5012155;28;19914;-86
2024/02/05 01:03:34;;;;;;;;;;;;;;;11.34;45.05;99680.56;5012576;28;19913;-86
2024/02/05 01:05:59;;;;;;;;;;;;;;;11.37;44.68;99680.22;5011382;28;20350;-86
2024/02/05 01:08:24;;;;;;;;;;;;;;;11.39;44.79;99670.28;5015924;28;21015;-86
2024/02/05 01:10:50;;;;;;;;;;;;;;;11.40;44.15;99664.00;5016008;28;19917;-86
2024/02/05 01:13:15;;;;;;;;;;;;;;;11.42;44.80;99664.63;5015999;28;19920;-86
2024/02/05 01:15:41;;;;;;;;;;;;;;;11.42;44.46;99670.75;5015946;28;19913;-86
2024/02/05 01:18:06;;;;;;;;;;;;;;;11.42;44.92;99669.91;4998176;28;20390;-86
2024/02/05 01:20:31;;;;;;;;;;;;;;;11.38;44.48;99669.47;5015846;28;19921;-86
2024/02/05 01:22:57;;;;;;;;;;;;;;;11.37;44.93;99673.09;4998222;28;20068;-86
2024/02/05 01:25:22;;;;;;;;;;;;;;;11.36;44.56;99663.53;5015912;28;19917;-86
2024/02/05 01:27:47;;;;;;;;;;;;;;;11.37;45.40;99667.00;5015593;28;19917;-86
2024/02/05 01:30:15;;;;;;;;;;;;;;;11.36;45.43;99660.88;5015583;28;19913;-86
2024/02/05 01:32:41;;;;;;;;;;;;;;;11.35;45.28;99659.25;5015581;28;20362;-86
2024/02/05 01:35:06;;;;;;;;;;;;;;;11.36;44.96;99646.84;5015338;28;19929;-85
2024/02/05 01:37:31;;;;;;;;;;;;;;;11.35;44.72;99655.78;5005796;28;19913;-85
2024/02/05 01:39:57;;;;;;;;;;;;;;;11.36;44.66;99650.31;5027281;28;19914;-86
2024/02/05 01:42:24;;;;;;;;;;;;;;;11.36;44.62;99647.66;5015796;28;19920;-86
2024/02/05 01:44:50;;;;;;;;;;;;;;;11.35;44.52;99643.38;4998096;28;19913;-86
2024/02/05 01:47:16;;;;;;;;;;;;;;;11.35;44.97;99653.94;4998178;28;20394;-86
2024/02/05 01:49:41;;;;;;;;;;;;;;;11.36;45.19;99641.56;4998005;28;19914;-86
2024/02/05 01:52:09;;;;;;;;;;;;;;;11.35;45.30;99634.63;5015358;28;19928;-85
2024/02/05 01:54:35;;;;;;;;;;;;;;;11.31;45.34;99623.59;5015148;28;19913;-86
2024/02/05 01:57:02;;;;;;;;;;;;;;;11.27;44.69;99614.38;5015163;28;19918;-86
2024/02/05 01:59:28;;;;;;;;;;;;;;;11.22;44.99;99610.66;4997530;28;19920;-86
2024/02/05 02:01:53;;;;;;;;;;;;;;;11.20;45.84;99605.53;4997429;28;20322;-86
2024/02/05 02:04:18;;;;;;;;;;;;;;;11.18;45.79;99610.19;5015004;28;19914;-86
2024/02/05 02:06:44;;;;;;;;;;;;;;;11.13;45.28;99612.50;4997342;28;19918;-86
2024/02/05 02:09:13;;;;;;;;;;;;;;;11.04;45.80;99598.56;5003129;28;19993;-86
2024/02/05 02:11:40;;;;;;;;;;;;;;;10.94;46.15;99589.25;5015177;28;19914;-86
2024/02/05 02:14:06;;;;;;;;;;;;;;;10.83;46.27;99591.31;5013611;28;19920;-86
2024/02/05 02:16:31;;;;;;;;;;;;;;;10.73;46.62;99588.09;5014860;28;19913;-86
2024/02/05 02:19:00;;;;;;;;;;;;;;;10.65;46.45;99596.09;5013567;28;19971;-86
2024/02/05 02:21:25;;;;;;;;;;;;;;;10.57;46.54;99593.50;5013553;28;19913;-86
2024/02/05 02:23:51;;;;;;;;;;;;;;;10.51;46.78;99594.22;5013407;28;19913;-86
2024/02/05 02:26:16;;;;;;;;;;;;;;;10.45;46.79;99584.38;5013290;28;19918;-86
2024/02/05 02:28:42;;;;;;;;;;;;;;;10.40;47.48;99587.53;5014524;28;19913;-87
2024/02/05 02:31:07;;;;;;;;;;;;;;;10.37;47.75;99592.31;5013192;28;20011;-86
2024/02/05 02:33:48;;;;;;;;;;;;;;;10.31;47.81;99582.47;5014835;28;19913;-87
2024/02/05 02:36:17;;;;;;;;;;;;;;;10.28;48.25;99585.44;5014423;28;20342;-87
2024/02/05 02:38:51;;;;;;;;;;;;;;;10.23;48.05;99582.50;5014401;28;20284;-86
2024/02/05 02:41:31;;;;;;;;;;;;;;;10.18;47.95;99585.66;5014481;28;19914;-86
2024/02/05 02:44:00;;;;;;;;;;;;;;;10.13;48.50;99583.53;5013074;28;19918;-87
2024/02/05 02:46:28;;;;;;;;;;;;;;;10.08;48.36;99588.50;5012931;28;19917;-86
2024/02/05 02:48:53;;;;;;;;;;;;;;;10.04;48.96;99576.66;5014186;28;20402;-87
2024/02/05 02:51:18;;;;;;;;;;;;;;;10.02;49.00;99577.81;5014069;28;19913;-87
2024/02/05 02:53:44;;;;;;;;;;;;;;;10.00;48.94;99590.38;5014293;28;19917;-86
2024/02/05 02:56:09;;;;;;;;;;;;;;;9.98;48.96;99585.25;5014000;28;19980;-86
2024/02/05 02:58:35;;;;;;;;;;;;;;;9.95;49.25;99590.88;5012793;28;20393;-87
2024/02/05 03:01:00;;;;;;;;;;;;;;;9.95;49.26;99606.72;5013996;28;19913;-86
2024/02/05 03:03:25;;;;;;;;;;;;;;;9.93;48.90;99606.06;5013912;28;19990;-87
2024/02/05 03:05:51;;;;;;;;;;;;;;;9.90;48.97;99610.84;5012632;28;19914;-86
2024/02/05 03:08:16;;;;;;;;;;;;;;;9.88;49.08;99611.03;5013991;28;19913;-86
2024/02/05 03:10:42;;;;;;;;;;;;;;;9.87;49.02;99612.84;5014342;28;19940;-86
2024/02/05 03:13:07;;;;;;;;;;;;;;;9.87;49.27;99604.13;4997131;28;19913;-86
2024/02/05 03:15:32;;;;;;;;;;;;;;;9.86;49.41;99605.09;5026806;28;19913;-86
2024/02/05 03:17:58;;;;;;;;;;;;;;;9.85;49.11;99604.28;5026245;28;20410;-86
2024/02/05 03:20:33;;;;;;;;;;;;;;;9.83;49.25;99598.38;4996501;28;19920;-86
2024/02/05 03:23:00;;;;;;;;;;;;;;;9.82;49.62;99587.97;5013491;28;20417;-86
2024/02/05 03:25:26;;;;;;;;;;;;;;;9.79;49.75;99586.50;4995823;28;19914;-87
2024/02/05 03:27:51;;;;;;;;;;;;;;;9.77;49.49;99582.41;5013670;28;20310;-87
2024/02/05 03:30:16;;;;;;;;;;;;;;;9.75;49.69;99584.41;5013034;28;19914;-87
2024/02/05 03:32:42;;;;;;;;;;;;;;;9.72;49.91;99590.84;5013622;28;19913;-86
2024/02/05 03:35:08;;;;;;;;;;;;;;;9.71;50.24;99591.81;5013634;28;20370;-87
2024/02/05 03:37:34;;;;;;;;;;;;;;;9.68;50.17;99591.34;4996020;28;19913;-86
2024/02/05 03:39:59;;;;;;;;;;;;;;;9.64;50.24;99593.47;4996024;28;19913;-87
2024/02/05 03:42:24;;;;;;;;;;;;;;;9.64;50.12;99592.66;4996013;28;19928;-86
2024/02/05 03:44:50;;;;;;;;;;;;;;;9.63;50.53;99591.00;4995779;28;19992;-86
2024/02/05 03:47:15;;;;;;;;;;;;;;;9.62;50.09;99592.00;5013632;28;20056;-86
2024/02/05 03:49:40;;;;;;;;;;;;;;;9.62;50.15;99587.53;5013415;28;20379;-87
2024/02/05 03:52:06;;;;;;;;;;;;;;;9.60;50.68;99591.34;4995509;28;19914;-87
2024/02/05 03:54:31;;;;;;;;;;;;;;;9.57;50.56;99580.16;4995435;28;19914;-87
2024/02/05 03:56:58;;;;;;;;;;;;;;;9.58;50.29;99580.97;4995668;28;20363;-87
2024/02/05 03:59:23;;;;;;;;;;;;;;;9.57;50.70;99584.59;4995365;28;20008;-86
2024/02/05 04:01:48;;;;;;;;;;;;;;;9.56;50.57;99575.88;5013314;28;20014;-87
2024/02/05 04:04:14;;;;;;;;;;;;;;;9.55;50.46;99568.97;5012787;28;19916;-86
2024/02/05 04:06:39;;;;;;;;;;;;;;;9.56;50.86;99577.69;4995431;28;19917;-86
2024/02/05 04:09:04;;;;;;;;;;;;;;;9.56;50.40;99573.22;5012797;28;19922;-86
2024/02/05 04:11:32;;;;;;;;;;;;;;;9.55;50.78;99573.41;5012925;28;20406;-87
2024/02/05 04:13:57;;;;;;;;;;;;;;;9.56;50.65;99570.59;5012795;28;19913;-86
2024/02/05 04:16:23;;;;;;;;;;;;;;;9.60;50.52;99568.44;5012844;28;19920;-86
2024/02/05 04:18:49;;;;;;;;;;;;;;;9.61;50.45;99556.91;4995163;28;19906;-86
2024/02/05 04:21:14;;;;;;;;;;;;;;;9.64;50.29;99548.66;4994989;28;19919;-86
2024/02/05 04:23:39;;;;;;;;;;;;;;;9.65;50.75;99562.66;4995344;28;19914;-86
2024/02/05 04:26:12;;;;;;;;;;;;;;;9.64;50.51;99568.91;5012437;28;19906;-87
2024/02/05 04:28:38;;;;;;;;;;;;;;;9.62;50.56;99563.81;5012846;28;20024;-86
2024/02/05 04:31:03;;;;;;;;;;;;;;;9.63;50.99;99562.00;5012588;28;20004;-87
2024/02/05 04:33:28;;;;;;;;;;;;;;;9.65;50.66;99558.22;5012774;28;20441;-86
2024/02/05 04:35:54;;;;;;;;;;;;;;;9.66;50.82;99565.16;4994965;28;19913;-87
2024/02/05 04:38:19;;;;;;;;;;;;;;;9.68;50.37;99572.88;5012362;28;19914;-86
2024/02/05 04:40:44;;;;;;;;;;;;;;;9.69;50.29;99577.16;5011424;28;19913;-86
2024/02/05 04:43:10;;;;;;;;;;;;;;;9.68;50.04;99576.34;5012350;28;19921;-87
2024/02/05 04:45:35;;;;;;;;;;;;;;;9.72;49.86;99577.66;5012425;28;19936;-87
2024/02/05 04:48:00;;;;;;;;;;;;;;;9.76;49.84;99576.31;4994397;28;19917;-86
2024/02/05 04:50:25;;;;;;;;;;;;;;;9.77;50.12;99572.69;5011942;28;19914;-87
2024/02/05 04:52:51;;;;;;;;;;;;;;;9.78;49.99;99570.88;5012147;28;19948;-86
2024/02/05 04:55:16;;;;;;;;;;;;;;;9.78;50.08;99563.78;5011983;28;19920;-87
2024/02/05 04:57:48;;;;;;;;;;;;;;;9.79;50.02;99568.06;5012048;28;19971;-86
2024/02/05 05:00:13;;;;;;;;;;;;;;;9.77;50.41;99572.69;5011749;28;19913;-87
2024/02/05 05:02:39;;;;;;;;;;;;;;;9.77;50.09;99574.50;5012026;28;19963;-87
2024/02/05 05:05:04;;;;;;;;;;;;;;;9.76;50.17;99568.41;5012083;28;19913;-86
2024/02/05 05:07:29;;;;;;;;;;;;;;;9.72;50.03;99582.91;5011755;28;20395;-87
2024/02/05 05:09:55;;;;;;;;;;;;;;;9.71;50.38;99577.81;5011604;28;19979;-87
2024/02/05 05:12:20;;;;;;;;;;;;;;;9.68;50.45;99578.16;5011909;28;19921;-87
2024/02/05 05:14:45;;;;;;;;;;;;;;;9.70;50.15;99576.19;4994675;28;19921;-87
2024/02/05 05:17:10;;;;;;;;;;;;;;;9.68;50.43;99576.34;5011953;28;19967;-86
2024/02/05 05:19:36;;;;;;;;;;;;;;;9.66;50.36;99572.22;4994328;28;19914;-87
2024/02/05 05:22:01;;;;;;;;;;;;;;;9.65;50.98;99579.28;4994194;28;20007;-87
2024/02/05 05:24:26;;;;;;;;;;;;;;;9.65;50.37;99581.94;5011668;28;19921;-87
2024/02/05 05:26:52;;;;;;;;;;;;;;;9.65;50.21;99584.56;4994104;28;19918;-87
2024/02/05 05:29:17;;;;;;;;;;;;;;;9.66;50.50;99588.88;4994183;28;19920;-86
2024/02/05 05:31:42;;;;;;;;;;;;;;;9.67;50.15;99605.53;5011875;28;20375;-87
2024/02/05 05:34:07;;;;;;;;;;;;;;;9.66;50.21;99591.53;5012038;28;20470;-87
2024/02/05 05:36:34;;;;;;;;;;;;;;;9.65;50.31;99595.13;5011729;28;19913;-86
2024/02/05 05:38:59;;;;;;;;;;;;;;;9.65;50.43;99594.28;5011748;28;19913;-87
2024/02/05 05:41:25;;;;;;;;;;;;;;;9.65;50.26;99591.66;5011705;28;20015;-86
2024/02/05 05:43:52;;;;;;;;;;;;;;;9.64;50.32;99584.75;5011559;28;20284;-86
2024/02/05 05:46:17;;;;;;;;;;;;;;;9.63;50.66;99599.72;5011500;28;19924;-86
2024/02/05 05:48:43;;;;;;;;;;;;;;;9.61;50.95;99593.81;5011543;28;19913;-87
2024/02/05 05:51:08;;;;;;;;;;;;;;;9.61;50.31;99585.91;5011588;28;19940;-87
2024/02/05 05:53:33;;;;;;;;;;;;;;;9.61;50.37;99578.00;4997053;28;19913;-87
2024/02/05 05:55:58;;;;;;;;;;;;;;;9.61;51.43;99580.63;5015112;28;19968;-86
2024/02/05 05:58:24;;;;;;;;;;;;;;;9.59;50.84;99587.88;5015197;28;19972;-86
2024/02/05 06:00:49;;;;;;;;;;;;;;;9.57;50.65;99580.16;5015060;28;20363;-87
2024/02/05 06:03:15;;;;;;;;;;;;;;;9.57;50.83;99584.59;5015036;28;20391;-87
2024/02/05 06:05:42;;;;;;;;;;;;;;;9.57;50.98;99579.34;4997386;28;19914;-87
2024/02/05 06:08:08;;;;;;;;;;;;;;;9.58;51.11;99570.44;4997085;28;20372;-87
2024/02/05 06:10:33;;;;;;;;;;;;;;;9.56;50.95;99565.31;5014927;28;19967;-87
2024/02/05 06:12:59;;;;;;;;;;;;;;;9.56;51.47;99577.69;5014700;28;19940;-86
2024/02/05 06:15:25;;;;;;;;;;;;;;;9.56;50.98;99560.06;4997589;28;19948;-87
2024/02/05 06:17:50;;;;;;;;;;;;;;;9.55;51.04;99576.03;4997066;28;19968;-86
2024/02/05 06:20:15;;;;;;;;;;;;;;;9.57;51.08;99580.16;4997102;28;19921;-86
2024/02/05 06:22:41;;;;;;;;;;;;;;;9.61;50.87;99569.25;4996881;28;20014;-87
2024/02/05 06:25:06;;;;;;;;;;;;;;;9.62;50.80;99569.09;5014625;28;19917;-87
2024/02/05 06:27:31;;;;;;;;;;;;;;;9.66;50.96;99561.66;5013735;28;19921;-86
2024/02/05 06:29:57;;;;;;;;;;;;;;;9.66;51.34;99567.78;4982881;28;20012;-86
2024/02/05 06:32:22;;;;;;;;;;;;;;;9.66;51.76;99580.13;4985336;28;19927;-86
2024/02/05 06:34:49;;;;;;;;;;;;;;;9.64;51.07;99574.19;4997682;28;19949;-85
2024/02/05 06:37:14;;;;;;;;;;;;;;;9.65;51.05;99586.38;4984602;28;19917;-86
2024/02/05 06:39:40;;;;;;;;;;;;;;;9.67;51.33;99585.25;4981237;28;19969;-86
2024/02/05 06:42:05;;;;;;;;;;;;;;;9.69;51.16;99582.44;4995448;28;20338;-87
2024/02/05 06:44:30;;;;;;;;;;;;;;;9.70;51.39;99584.09;5004798;28;19924;-86
2024/02/05 06:46:56;;;;;;;;;;;;;;;9.71;51.31;99585.72;4981490;28;19917;-86
2024/02/05 06:49:22;;;;;;;;;;;;;;;9.75;51.47;99581.75;4996880;28;19917;-87
2024/02/05 06:51:47;;;;;;;;;;;;;;;9.76;51.49;99581.59;4996667;28;19979;-86
2024/02/05 06:54:12;;;;;;;;;;;;;;;9.82;50.64;99574.81;5013996;28;20394;-87
2024/02/05 06:56:37;;;;;;;;;;;;;;;9.85;50.73;99566.53;4995717;28;20000;-87
2024/02/05 06:59:03;;;;;;;;;;;;;;;9.89;50.40;99567.84;4983942;28;19918;-86
2024/02/05 07:01:28;;;;;;;;;;;;;;;9.92;50.63;99578.03;4998811;28;19933;-86
2024/02/05 07:03:57;;;;;;;;;;;;;;;9.98;50.97;99568.63;4993376;28;20322;-86
2024/02/05 07:06:23;;;;;;;;;;;;;;;10.02;51.03;99573.38;4994066;28;19914;-86
2024/02/05 07:08:48;;;;;;;;;;;;;;;10.08;50.54;99571.84;4979455;28;19922;-86
2024/02/05 07:11:13;;;;;;;;;;;;;;;10.13;50.64;99586.16;4994031;28;19921;-86
2024/02/05 07:13:39;;;;;;;;;;;;;;;10.21;50.37;99584.50;4996400;28;19924;-86
2024/02/05 07:16:05;;;;;;;;;;;;;;;10.28;49.79;99591.56;5012037;28;19917;-86
2024/02/05 07:18:31;;;;;;;;;;;;;;;10.35;50.45;99589.03;5013387;28;19923;-86
2024/02/05 07:20:56;;;;;;;;;;;;;;;10.40;49.90;99579.63;5012201;28;20004;-86
2024/02/05 07:23:21;;;;;;;;;;;;;;;10.48;50.33;99569.00;5013382;28;19997;-86
2024/02/05 07:25:47;;;;;;;;;;;;;;;10.54;49.49;99562.19;5013351;28;20338;-86
2024/02/05 07:28:12;;;;;;;;;;;;;;;10.63;49.36;99563.78;5005764;28;19929;-86
2024/02/05 07:30:37;;;;;;;;;;;;;;;10.70;48.60;99562.06;5005510;28;20016;-86
2024/02/05 07:33:02;;;;;;;;;;;;;;;10.76;48.88;99565.81;5013534;28;20317;-86
2024/02/05 07:35:28;;;;;;;;;;;;;;;10.85;49.00;99574.47;5011878;28;19975;-86
2024/02/05 07:37:53;;;;;;;;;;;;;;;10.90;49.00;99567.66;5013765;28;20551;-86
2024/02/05 07:40:18;;;;;;;;;;;;;;;10.97;48.52;99570.41;5011952;28;19918;-86
2024/02/05 07:42:44;;;;;;;;;;;;;;;11.03;48.06;99570.50;5013540;28;19914;-86
2024/02/05 07:45:09;;;;;;;;;;;;;;;11.11;48.13;99566.94;5012108;28;19924;-86
2024/02/05 07:47:34;;;;;;;;;;;;;;;11.16;48.10;99564.63;5012158;28;19925;-86
2024/02/05 07:50:00;;;;;;;;;;;;;;;11.21;47.88;99567.53;5013390;28;20307;-86
2024/02/05 07:52:26;;;;;;;;;;;;;;;11.25;48.13;99568.00;5019978;28;19921;-85
2024/02/05 07:54:51;;;;;;;;;;;;;;;11.32;45.77;99561.81;5023839;28;19918;-86
2024/02/05 07:57:18;;;;;;;;;;;;;;;11.50;45.27;99566.72;5013085;28;20389;-86
2024/02/05 07:59:44;;;;;;;;;;;;;;;11.72;43.42;99559.66;5010042;28;19972;-86
2024/02/05 08:02:09;;;;;;;;;;;;;;;11.94;43.30;99553.47;5013021;28;19913;-85
2024/02/05 08:04:34;;;;;;;;;;;;;;;12.13;43.98;99560.00;4993602;28;19941;-86
2024/02/05 08:07:01;;;;;;;;;;;;;;;12.27;42.06;99564.41;4991669;28;19945;-85
2024/02/05 08:09:27;;;;;;;;;;;;;;;12.47;42.63;99561.97;5001663;28;19928;-86
2024/02/05 08:11:52;;;;;;;;;;;;;;;12.63;42.20;99559.06;4993027;28;20004;-86
2024/02/05 08:14:17;;;;;;;;;;;;;;;12.79;41.94;99557.16;4991696;28;19921;-86
2024/02/05 08:16:42;;;;;;;;;;;;;;;12.97;42.78;99562.81;4991497;28;19914;-85
2024/02/05 08:19:09;;;;;;;;;;;;;;;13.11;42.43;99564.53;4992894;28;20415;-86
2024/02/05 08:21:38;;;;;;;;;;;;;;;13.21;40.82;99570.34;4991369;28;19921;-85
2024/02/05 08:24:03;;;;;;;;;;;;;;;13.32;40.02;99561.84;4992798;28;19918;-85
2024/02/05 08:26:30;;;;;;;;;;;;;;;13.47;39.79;99575.00;5010652;28;19979;-85
2024/02/05 08:28:56;;;;;;;;;;;;;;;13.57;39.41;99579.97;5011660;28;19921;-84
2024/02/05 08:31:21;;;;;;;;;;;;;;;13.66;39.10;99571.63;5010690;28;20280;-84
2024/02/05 08:33:46;;;;;;;;;;;;;;;13.75;39.03;99574.13;5011034;28;20375;-84
2024/02/05 08:36:12;;;;;;;;;;;;;;;13.81;40.11;99575.97;5010944;28;19912;-85
2024/02/05 08:38:37;;;;;;;;;;;;;;;13.86;38.07;99573.56;5012073;28;19920;-85
2024/02/05 08:41:03;;;;;;;;;;;;;;;13.97;38.47;99573.81;5011907;28;20374;-85
2024/02/05 08:43:28;;;;;;;;;;;;;;;14.10;39.09;99564.25;5012093;28;20059;-84
2024/02/05 08:45:53;;;;;;;;;;;;;;;14.19;37.98;99566.53;5003882;28;20450;-84
2024/02/05 08:48:19;;;;;;;;;;;;;;;14.27;38.89;99565.53;5003448;28;19925;-85
2024/02/05 08:50:44;;;;;;;;;;;;;;;14.37;38.40;99567.81;5002611;28;19924;-84
2024/02/05 08:53:09;;;;;;;;;;;;;;;14.49;38.09;99567.03;5007439;28;19967;-85
2024/02/05 08:55:35;;;;;;;;;;;;;;;14.66;37.98;99569.28;4998273;28;20036;-83
2024/02/05 08:58:00;;;;;;;;;;;;;;;14.74;36.88;99558.47;5006247;28;19921;-84
2024/02/05 09:00:28;;;;;;;;;;;;;;;14.83;37.69;99570.53;5000966;28;19957;-84
2024/02/05 09:02:56;;;;;;;;;;;;;;;14.89;37.12;99567.91;4990932;28;19914;-85
2024/02/05 09:05:21;;;;;;;;;;;;;;;15.02;37.35;99575.03;5005020;28;20291;-84
2024/02/05 09:07:47;;;;;;;;;;;;;;;15.20;37.37;99574.41;5010497;28;19974;-84
2024/02/05 09:10:12;;;;;;;;;;;;;;;15.37;35.74;99553.50;4996196;28;19975;-84
2024/02/05 09:12:38;;;;;;;;;;;;;;;15.47;35.53;99567.19;5012047;28;19917;-84
2024/02/05 09:15:03;;;;;;;;;;;;;;;15.60;35.68;99566.34;5011482;28;20401;-84
2024/02/05 09:17:29;;;;;;;;;;;;;;;15.65;34.90;99559.41;5010329;28;20295;-84
2024/02/05 09:19:54;;;;;;;;;;;;;;;15.73;36.04;99550.38;4994310;28;19924;-85
2024/02/05 09:22:20;;;;;;;;;;;;;;;15.77;36.03;99557.72;4989138;28;19914;-84
2024/02/05 09:24:45;;;;;;;;;;;;;;;15.83;34.95;99551.56;4990844;28;20299;-85
2024/02/05 09:27:10;;;;;;;;;;;;;;;15.88;34.08;99549.06;4991369;28;20008;-84
2024/02/05 09:29:36;;;;;;;;;;;;;;;15.99;34.71;99549.44;5003586;28;20008;-84
2024/02/05 09:32:01;;;;;;;;;;;;;;;16.02;34.27;99560.47;4990623;28;19968;-84
2024/02/05 09:34:26;;;;;;;;;;;;;;;16.13;33.84;99553.66;5014866;28;19982;-84
2024/02/05 09:36:52;;;;;;;;;;;;;;;16.25;33.23;99556.44;5012990;28;19921;-84
2024/02/05 09:39:17;;;;;;;;;;;;;;;16.36;32.65;99545.94;5010865;28;19921;-84
2024/02/05 09:41:43;;;;;;;;;;;;;;;16.42;33.36;99541.59;4986866;28;19995;-84
2024/02/05 09:44:08;;;;;;;;;;;;;;;16.52;32.99;99545.44;4996273;28;20407;-83
2024/02/05 09:46:34;;;;;;;;;;;;;;;16.57;33.44;99534.13;4996687;28;19921;-83
2024/02/05 09:49:02;;;;;;;;;;;;;;;16.62;31.89;99531.63;5011012;28;19917;-83
2024/02/05 09:51:29;;;;;;;;;;;;;;;16.66;33.32;99553.34;4995558;28;19913;-83
2024/02/05 09:53:55;;;;;;;;;;;;;;;16.69;32.08;99526.25;4994161;28;20339;-83
2024/02/05 09:56:25;;;;;;;;;;;;;;;16.70;32.69;99515.38;4995373;28;19914;-83
2024/02/05 09:58:50;;;;;;;;;;;;;;;16.79;30.94;99518.56;4984320;28;19921;-83
2024/02/05 10:01:16;;;;;;;;;;;;;;;16.80;32.54;99510.38;4997035;28;19971;-84
2024/02/05 10:03:43;;;;;;;;;;;;;;;16.83;30.86;99511.78;5007055;28;19971;-83
2024/02/05 10:06:10;;;;;;;;;;;;;;;16.90;31.35;99517.84;4977357;28;19914;-82
2024/02/05 10:08:36;;;;;;;;;;;;;;;16.98;31.29;99512.25;5000244;28;20314;-83
2024/02/05 10:11:02;;;;;;;;;;;;;;;17.07;31.56;99508.25;5014755;28;19920;-83
2024/02/05 10:13:29;;;;;;;;;;;;;;;17.18;31.79;99501.41;4997101;28;19912;-83
2024/02/05 10:15:54;;;;;;;;;;;;;;;17.29;32.03;99492.66;4983108;28;19941;-83
2024/02/05 10:18:20;;;;;;;;;;;;;;;17.44;31.63;99492.28;4982652;28;19948;-83
2024/02/05 10:20:46;;;;;;;;;;;;;;;17.57;30.97;99488.63;4992793;28;19959;-83
2024/02/05 10:23:11;;;;;;;;;;;;;;;17.65;30.94;99488.31;5012896;28;19977;-83
2024/02/05 10:25:38;;;;;;;;;;;;;;;17.71;30.04;99484.78;5014793;28;20360;-83
2024/02/05 10:28:04;;;;;;;;;;;;;;;17.76;30.43;99471.56;5012819;28;19951;-83
2024/02/05 10:30:29;;;;;;;;;;;;;;;17.84;29.75;99459.78;5014631;28;20348;-83
2024/02/05 10:32:56;;;;;;;;;;;;;;;17.93;30.05;99477.09;5009808;28;19921;-82
2024/02/05 10:35:21;;;;;;;;;;;;;;;18.05;29.58;99464.59;4977119;28;19980;-82
2024/02/05 10:37:46;;;;;;;;;;;;;;;18.09;29.68;99434.53;4999214;28;19917;-83
2024/02/05 10:40:12;;;;;;;;;;;;;;;18.10;29.44;99446.84;4982478;28;20072;-83
2024/02/05 10:42:37;;;;;;;;;;;;;;;18.07;30.22;99460.66;4998909;28;20444;-84
2024/02/05 10:45:03;;;;;;;;;;;;;;;18.02;30.39;99439.16;4977895;28;20358;-83
2024/02/05 10:47:29;;;;;;;;;;;;;;;18.01;29.98;99426.03;4994438;28;19929;-83
2024/02/05 10:49:55;;;;;;;;;;;;;;;18.04;29.95;99434.41;4982971;28;20017;-82
2024/02/05 10:52:20;;;;;;;;;;;;;;;18.08;30.33;99434.75;4996994;28;19996;-83
2024/02/05 10:54:46;;;;;;;;;;;;;;;18.10;29.99;99421.97;4978376;28;19921;-82
2024/02/05 10:57:13;;;;;;;;;;;;;;;18.14;30.67;99407.13;5013999;28;20437;-83
2024/02/05 10:59:38;;;;;;;;;;;;;;;18.18;29.78;99412.81;4996345;28;19913;-83
2024/02/05 11:02:10;;;;;;;;;;;;;;;18.21;30.15;99407.00;4994336;28;19913;-83
2024/02/05 11:04:35;;;;;;;;;;;;;;;18.23;29.04;99411.06;4998697;28;19987;-82
2024/02/05 11:07:03;;;;;;;;;;;;;;;18.27;29.95;99396.19;5010538;28;20384;-83
2024/02/05 11:09:29;;;;;;;;;;;;;;;18.29;29.62;99401.31;4991156;28;20012;-83
2024/02/05 11:11:57;;;;;;;;;;;;;;;18.31;29.50;99408.06;4977404;28;20423;-82
2024/02/05 11:14:23;;;;;;;;;;;;;;;18.39;29.07;99402.38;4995755;28;19913;-84
2024/02/05 11:16:49;;;;;;;;;;;;;;;18.40;30.52;99398.66;5013359;28;20029;-84
2024/02/05 11:19:17;;;;;;;;;;;;;;;18.44;30.46;99417.72;4995657;28;19917;-84
2024/02/05 11:21:47;;;;;;;;;;;;;;;18.47;29.39;99425.28;4990489;28;19968;-82
2024/02/05 11:24:14;;;;;;;;;;;;;;;18.47;29.72;99414.56;5013943;28;19968;-83
2024/02/05 11:26:39;;;;;;;;;;;;;;;18.46;29.95;99409.47;5003465;28;19922;-82
2024/02/05 11:29:05;;;;;;;;;;;;;;;18.47;29.80;99408.41;4994211;28;20016;-83
2024/02/05 11:31:30;;;;;;;;;;;;;;;18.48;30.04;99396.66;4976577;28;19914;-83
2024/02/05 11:34:03;;;;;;;;;;;;;;;18.47;29.74;99398.53;4989620;28;20434;-82
2024/02/05 11:36:29;;;;;;;;;;;;;;;18.48;29.60;99383.31;4996265;28;19921;-83
2024/02/05 11:39:04;;;;;;;;;;;;;;;18.49;30.68;99385.75;5005528;28;19917;-83
2024/02/05 11:41:30;;;;;;;;;;;;;;;18.51;29.21;99377.50;5002299;28;20310;-83
2024/02/05 11:44:05;;;;;;;;;;;;;;;18.51;29.86;99378.31;4981860;28;19936;-83
2024/02/05 11:46:30;;;;;;;;;;;;;;;18.55;29.37;99362.59;5002751;28;19975;-82
2024/02/05 11:48:55;;;;;;;;;;;;;;;18.55;29.83;99344.72;4975939;28;19918;-83
2024/02/05 11:51:21;;;;;;;;;;;;;;;18.52;30.31;99355.06;4994629;28;19913;-83
2024/02/05 11:53:47;;;;;;;;;;;;;;;18.50;30.60;99365.97;5012462;28;19973;-83
2024/02/05 11:56:13;;;;;;;;;;;;;;;18.53;30.12;99367.38;4994940;28;19996;-83
2024/02/05 11:58:39;;;;;;;;;;;;;;;18.56;30.21;99365.03;4989696;28;19997;-83
2024/02/05 12:01:06;;;;;;;;;;;;;;;18.59;29.96;99345.06;4993926;28;20379;-83
2024/02/05 12:03:32;;;;;;;;;;;;;;;18.58;30.49;99357.63;4991504;28;19921;-83
2024/02/05 12:05:58;;;;;;;;;;;;;;;18.62;29.99;99358.81;4975366;28;19917;-84
2024/02/05 12:08:23;;;;;;;;;;;;;;;18.64;30.48;99356.72;4992674;28;19921;-83
2024/02/05 12:10:48;;;;;;;;;;;;;;;18.70;29.34;99374.50;4974798;28;20418;-83
2024/02/05 12:13:19;;;;;;;;;;;;;;;18.72;29.39;99369.75;4992625;28;19913;-83
2024/02/05 12:15:45;;;;;;;;;;;;;;;18.72;29.30;99363.56;4992729;28;19923;-84
2024/02/05 12:18:10;;;;;;;;;;;;;;;18.71;29.50;99357.41;4974694;28;19978;-83
2024/02/05 12:20:38;;;;;;;;;;;;;;;18.77;29.47;99370.91;4992909;28;20302;-83
2024/02/05 12:23:04;;;;;;;;;;;;;;;18.74;29.11;99374.84;4974518;28;19918;-83
2024/02/05 12:25:29;;;;;;;;;;;;;;;18.75;29.61;99359.63;4975239;28;19935;-84
2024/02/05 12:27:55;;;;;;;;;;;;;;;18.80;29.17;99362.41;4992349;28;19930;-84
2024/02/05 12:30:23;;;;;;;;;;;;;;;18.78;29.68;99351.13;4991322;28;21646;-83
2024/02/05 12:32:55;;;;;;;;;;;;;;;18.79;30.50;99358.91;4992690;28;19918;-83
2024/02/05 12:35:21;;;;;;;;;;;;;;;18.79;30.35;99356.22;4974530;28;20000;-83
2024/02/05 12:37:47;;;;;;;;;;;;;;;18.79;29.74;99348.22;4992445;28;20441;-83
2024/02/05 12:40:13;;;;;;;;;;;;;;;18.83;29.36;99364.59;4992371;28;20422;-84
2024/02/05 12:42:39;;;;;;;;;;;;;;;18.87;29.67;99347.84;4992340;28;19972;-83